createdAt,value
2023-02-22T00:29:42.278Z,433.00
2023-02-22T00:30:41.777Z,427.00
2023-02-22T00:31:41.957Z,443.00
2023-02-22T00:32:42.077Z,443.00
2023-02-22T00:33:42.187Z,440.00
2023-02-22T00:34:42.293Z,443.00
2023-02-22T00:35:42.377Z,439.00
2023-02-22T00:36:42.452Z,441.00
2023-02-22T00:37:43.276Z,438.00
2023-02-22T00:38:42.621Z,437.00
2023-02-22T00:39:42.690Z,434.00
2023-02-22T00:40:42.786Z,434.00
2023-02-22T00:41:43.009Z,436.00
2023-02-22T00:42:43.031Z,444.00
2023-02-22T00:43:43.126Z,439.00
2023-02-22T00:44:43.222Z,440.00
2023-02-22T00:45:43.319Z,434.00
2023-02-22T00:46:43.380Z,435.00
2023-02-22T00:47:43.458Z,433.00
2023-02-22T00:48:43.558Z,467.00
2023-02-22T00:49:43.669Z,450.00
2023-02-22T00:50:43.805Z,439.00
2023-02-22T00:51:43.926Z,411.00
2023-02-22T00:52:43.969Z,457.00
2023-02-22T00:53:44.082Z,444.00
2023-02-22T00:54:44.172Z,440.00
2023-02-22T00:55:44.776Z,442.00
2023-02-22T00:56:44.334Z,440.00
2023-02-22T00:57:45.307Z,437.00
2023-02-22T00:58:44.509Z,433.00
2023-02-22T00:59:44.618Z,433.00
2023-02-22T01:00:44.734Z,433.00
2023-02-22T01:01:44.868Z,433.00
2023-02-22T01:02:44.991Z,433.00
2023-02-22T01:03:45.114Z,432.00
2023-02-22T01:04:45.165Z,441.00
2023-02-22T01:05:45.272Z,439.00
2023-02-22T01:06:45.340Z,441.00
2023-02-22T01:07:45.436Z,441.00
2023-02-22T01:08:45.505Z,442.00
2023-02-22T01:09:45.616Z,444.00
2023-02-22T01:10:45.705Z,441.00
2023-02-22T01:11:45.809Z,442.00
2023-02-22T01:12:45.900Z,441.00
2023-02-22T01:13:45.989Z,440.00
2023-02-22T01:14:46.057Z,440.00
2023-02-22T01:15:46.133Z,439.00
2023-02-22T01:16:46.219Z,435.00
2023-02-22T01:17:46.311Z,436.00
2023-02-22T01:18:46.426Z,430.00
2023-02-22T01:19:46.465Z,440.00
2023-02-22T01:20:46.560Z,435.00
2023-02-22T01:21:46.675Z,435.00
2023-02-22T01:22:46.779Z,430.00
2023-02-22T01:23:46.899Z,435.00
2023-02-22T01:24:47.017Z,432.00
2023-02-22T01:25:47.145Z,438.00
2023-02-22T01:26:47.291Z,442.00
2023-02-22T01:27:47.421Z,439.00
2023-02-22T01:28:47.545Z,424.00
2023-02-22T01:29:47.666Z,437.00
2023-02-22T01:30:47.856Z,441.00
2023-02-22T01:31:47.936Z,433.00
2023-02-22T01:32:48.035Z,437.00
2023-02-22T01:33:48.156Z,442.00
2023-02-22T01:34:48.282Z,445.00
2023-02-22T01:36:48.527Z,431.00
2023-02-22T01:37:48.661Z,432.00
2023-02-22T01:38:48.752Z,434.00
2023-02-22T01:39:48.874Z,452.00
2023-02-22T01:40:48.995Z,446.00
2023-02-22T01:59:51.918Z,451.00
2023-02-22T02:00:52.091Z,454.00
2023-02-22T02:01:52.242Z,450.00
2023-02-22T02:02:52.446Z,440.00
2023-02-22T02:03:52.649Z,433.00
2023-02-22T02:04:52.824Z,443.00
2023-02-22T02:05:52.886Z,433.00
2023-02-22T02:06:53.005Z,443.00
2023-02-22T02:07:53.144Z,421.00
2023-02-22T02:08:53.254Z,447.00
2023-02-22T02:09:53.388Z,434.00
2023-02-22T02:10:53.555Z,435.00
2023-02-22T02:11:53.704Z,441.00
2023-02-22T02:12:53.863Z,432.00
2023-02-22T02:13:54.049Z,432.00
2023-02-22T02:14:54.261Z,440.00
2023-02-22T02:15:54.485Z,433.00
2023-02-22T02:16:54.765Z,436.00
2023-02-22T02:17:54.937Z,440.00
2023-02-22T02:18:55.140Z,437.00
2023-02-22T02:19:55.330Z,436.00
2023-02-22T02:20:55.538Z,440.00
2023-02-22T02:21:55.762Z,437.00
2023-02-22T02:22:55.986Z,444.00
2023-02-22T02:23:56.211Z,446.00
2023-02-22T02:24:56.451Z,446.00
2023-02-22T02:25:56.731Z,445.00
2023-02-22T02:26:56.949Z,437.00
2023-02-22T02:27:57.121Z,440.00
2023-02-22T02:59:01.838Z,435.00
2023-02-22T03:55:11.761Z,437.00
2023-02-22T03:56:11.902Z,437.00
2023-02-22T03:57:12.053Z,437.00
2023-02-22T03:58:12.203Z,437.00
2023-02-22T03:59:12.334Z,438.00
2023-02-22T04:00:12.481Z,441.00
2023-02-22T04:01:12.626Z,443.00
2023-02-22T04:02:12.754Z,445.00
2023-02-22T04:03:12.934Z,447.00
2023-02-22T04:04:13.040Z,446.00
2023-02-22T04:05:13.191Z,473.00
2023-02-22T04:06:13.329Z,457.00
2023-02-22T05:03:21.930Z,456.00
2023-02-22T05:04:22.141Z,451.00
2023-02-22T05:05:22.337Z,451.00
2023-02-22T05:06:22.540Z,436.00
2023-02-22T05:07:22.651Z,445.00
2023-02-22T05:08:22.799Z,440.00
2023-02-22T05:09:22.991Z,454.00
2023-02-22T05:10:23.153Z,437.00
2023-02-22T05:11:23.313Z,447.00
2023-02-22T05:12:23.428Z,439.00
2023-02-22T05:13:23.590Z,447.00
2023-02-22T05:14:23.756Z,434.00
2023-02-22T05:15:23.957Z,442.00
2023-02-22T05:19:24.622Z,469.00
2023-02-22T06:00:31.825Z,440.00
2023-02-22T06:01:31.974Z,441.00
2023-02-22T06:02:32.161Z,443.00
2023-02-22T06:03:32.338Z,445.00
2023-02-22T06:04:33.309Z,442.00
2023-02-22T06:05:32.717Z,439.00
2023-02-22T06:06:32.781Z,439.00
2023-02-22T06:07:32.931Z,440.00
2023-02-22T06:08:33.105Z,440.00
2023-02-22T06:09:33.256Z,440.00
2023-02-22T06:10:33.410Z,448.00
2023-02-22T06:11:33.569Z,424.00
2023-02-22T06:12:33.749Z,467.00
2023-02-22T06:13:33.960Z,450.00
2023-02-22T06:14:34.174Z,433.00
2023-02-22T06:15:34.402Z,431.00
2023-02-22T06:16:34.586Z,436.00
2023-02-22T06:17:34.758Z,435.00
2023-02-22T06:18:34.967Z,436.00
2023-02-22T06:19:35.134Z,448.00
2023-02-22T06:20:35.319Z,436.00
2023-02-22T06:21:35.480Z,436.00
2023-02-22T06:22:35.663Z,439.00
2023-02-22T06:23:35.859Z,442.00
2023-02-22T06:24:36.084Z,449.00
2023-02-22T06:25:36.286Z,451.00
2023-02-22T06:26:36.517Z,460.00
2023-02-22T06:27:36.719Z,465.00
2023-02-22T06:28:36.925Z,452.00
2023-02-22T06:29:37.101Z,443.00
2023-02-22T06:30:37.307Z,453.00
2023-02-22T06:31:40.442Z,448.00
2023-02-22T06:32:37.638Z,448.00
2023-02-22T06:33:37.833Z,440.00
2023-02-22T06:34:37.951Z,452.00
2023-02-22T06:35:38.122Z,444.00
2023-02-22T06:36:38.284Z,447.00
2023-02-22T06:37:38.526Z,449.00
2023-02-22T06:38:38.654Z,455.00
2023-02-22T06:39:38.831Z,458.00
2023-02-22T06:40:38.987Z,448.00
2023-02-22T06:41:39.143Z,449.00
2023-02-22T06:42:39.291Z,449.00
2023-02-22T06:43:39.458Z,451.00
2023-02-22T06:44:39.587Z,449.00
2023-02-22T06:45:39.773Z,445.00
2023-02-22T06:46:39.865Z,439.00
2023-02-22T06:47:39.991Z,449.00
2023-02-22T06:48:40.138Z,431.00
2023-02-22T06:49:40.231Z,455.00
2023-02-22T06:50:40.356Z,446.00
2023-02-22T06:51:40.470Z,445.00
2023-02-22T06:52:40.646Z,442.00
2023-02-22T06:53:40.768Z,444.00
2023-02-22T06:54:40.867Z,463.00
2023-02-22T06:55:41.998Z,452.00
2023-02-22T06:56:41.106Z,449.00
2023-02-22T06:57:41.237Z,427.00
2023-02-22T06:58:41.375Z,437.00
2023-02-22T06:59:41.489Z,444.00
2023-02-22T07:00:41.641Z,440.00
2023-02-22T07:01:41.738Z,445.00
2023-02-22T07:02:41.874Z,460.00
2023-02-22T07:03:42.073Z,454.00
2023-02-22T07:04:43.572Z,463.00
2023-02-22T07:05:42.298Z,457.00
2023-02-22T07:06:42.421Z,459.00
2023-02-22T07:07:42.612Z,459.00
2023-02-22T07:08:42.805Z,461.00
2023-02-22T07:09:44.839Z,464.00
2023-02-22T07:10:43.272Z,470.00
2023-02-22T07:11:43.502Z,466.00
2023-02-22T07:12:43.731Z,460.00
2023-02-22T07:13:43.948Z,460.00
2023-02-22T07:14:44.156Z,452.00
2023-02-22T07:15:44.335Z,451.00
2023-02-22T07:16:44.547Z,439.00
2023-02-22T07:17:44.774Z,449.00
2023-02-22T07:18:44.969Z,445.00
2023-02-22T07:19:45.127Z,438.00
2023-02-22T07:20:45.460Z,440.00
2023-02-22T07:21:45.450Z,440.00
2023-02-22T07:22:45.628Z,441.00
2023-02-22T07:23:45.814Z,444.00
2023-02-22T07:24:45.969Z,447.00
2023-02-22T07:25:46.113Z,441.00
2023-02-22T07:26:46.242Z,440.00
2023-02-22T07:27:46.366Z,430.00
2023-02-22T07:28:46.497Z,442.00
2023-02-22T07:29:47.328Z,446.00
2023-02-22T07:30:46.854Z,449.00
2023-02-22T07:31:46.886Z,427.00
2023-02-22T07:32:47.142Z,443.00
2023-02-22T07:33:47.122Z,453.00
2023-02-22T07:34:47.239Z,452.00
2023-02-22T07:35:47.341Z,451.00
2023-02-22T07:36:47.457Z,434.00
2023-02-22T07:37:47.564Z,448.00
2023-02-22T07:38:47.713Z,445.00
2023-02-22T07:39:47.855Z,444.00
2023-02-22T07:40:48.056Z,439.00
2023-02-22T07:41:48.200Z,444.00
2023-02-22T07:42:48.368Z,447.00
2023-02-22T07:43:48.554Z,447.00
2023-02-22T07:44:48.725Z,450.00
2023-02-22T07:45:48.925Z,444.00
2023-02-22T07:46:49.030Z,436.00
2023-02-22T07:47:49.141Z,440.00
2023-02-22T07:48:49.283Z,454.00
2023-02-22T07:49:49.394Z,450.00
2023-02-22T07:50:49.582Z,448.00
2023-02-22T07:51:49.749Z,446.00
2023-02-22T07:52:49.940Z,450.00
2023-02-22T07:53:50.147Z,453.00
2023-02-22T07:54:50.290Z,455.00
2023-02-22T07:55:50.485Z,446.00
2023-02-22T07:56:50.694Z,449.00
2023-02-22T07:57:50.925Z,445.00
2023-02-22T07:58:51.042Z,446.00
2023-02-22T07:59:51.200Z,443.00
2023-02-22T08:00:51.361Z,438.00
2023-02-22T08:01:51.519Z,444.00
2023-02-22T08:02:51.697Z,444.00
2023-02-22T08:03:51.963Z,438.00
2023-02-22T08:04:52.829Z,442.00
2023-02-22T08:05:52.201Z,442.00
2023-02-22T08:06:52.350Z,447.00
2023-02-22T08:07:52.520Z,452.00
2023-02-22T08:08:52.672Z,441.00
2023-02-22T08:09:52.857Z,445.00
2023-02-22T08:10:52.963Z,445.00
2023-02-22T08:11:53.114Z,434.00
2023-02-22T08:12:53.238Z,446.00
2023-02-22T08:13:53.384Z,427.00
2023-02-22T08:14:53.559Z,454.00
2023-02-22T08:15:53.706Z,450.00
2023-02-22T08:16:53.909Z,455.00
2023-02-22T08:17:53.957Z,448.00
2023-02-22T08:18:54.100Z,444.00
2023-02-22T08:19:54.251Z,438.00
2023-02-22T08:20:54.372Z,441.00
2023-02-22T08:21:54.475Z,441.00
2023-02-22T08:22:54.582Z,443.00
2023-02-22T08:23:54.676Z,433.00
2023-02-22T08:24:54.771Z,430.00
2023-02-22T08:25:55.787Z,425.00
2023-02-22T08:26:54.947Z,427.00
2023-02-22T08:27:55.018Z,448.00
2023-02-22T08:28:55.126Z,453.00
2023-02-22T08:29:55.197Z,436.00
2023-02-22T08:30:55.261Z,438.00
2023-02-22T08:31:55.461Z,424.00
2023-02-22T08:32:55.592Z,429.00
2023-02-22T08:33:55.497Z,447.00
2023-02-22T08:34:55.604Z,445.00
2023-02-22T08:35:55.702Z,441.00
2023-02-22T08:36:55.820Z,448.00
2023-02-22T08:37:55.973Z,439.00
2023-02-22T08:38:56.105Z,436.00
2023-02-22T08:39:56.252Z,438.00
2023-02-22T08:40:56.365Z,437.00
2023-02-22T08:41:56.414Z,430.00
2023-02-22T08:42:56.484Z,439.00
2023-02-22T08:43:56.594Z,431.00
2023-02-22T08:44:56.724Z,440.00
2023-02-22T08:45:57.848Z,441.00
2023-02-22T08:46:56.920Z,436.00
2023-02-22T08:47:57.014Z,395.00
2023-02-22T08:48:57.114Z,436.00
2023-02-22T09:29:03.284Z,435.00
2023-02-22T09:34:04.176Z,434.00
2023-02-22T09:35:02.120Z,430.00
2023-02-22T09:36:02.325Z,438.00
2023-02-22T09:37:02.491Z,449.00
2023-02-22T09:38:02.667Z,427.00
2023-02-22T09:39:02.848Z,432.00
2023-02-22T09:40:03.130Z,435.00
2023-02-22T09:41:03.229Z,434.00
2023-02-22T09:42:03.421Z,428.00
2023-02-22T09:43:03.725Z,427.00
2023-02-22T09:44:03.944Z,440.00
2023-02-22T09:45:04.106Z,442.00
2023-02-22T09:46:04.375Z,434.00
2023-02-22T09:47:04.455Z,437.00
2023-02-22T09:48:20.866Z,435.00
2023-02-22T09:49:05.839Z,445.00
2023-02-22T09:50:04.796Z,440.00
2023-02-22T09:51:04.854Z,436.00
2023-02-22T09:52:04.886Z,441.00
2023-02-22T09:53:04.919Z,437.00
2023-02-22T09:54:04.988Z,440.00
2023-02-22T09:55:05.026Z,441.00
2023-02-22T09:56:05.092Z,440.00
2023-02-22T09:57:05.143Z,442.00
2023-02-22T09:58:05.211Z,444.00
2023-02-22T09:59:05.745Z,443.00
2023-02-22T10:00:05.342Z,446.00
2023-02-22T10:01:05.437Z,441.00
2023-02-22T10:02:05.506Z,441.00
2023-02-22T10:03:05.601Z,442.00
2023-02-22T10:04:05.760Z,440.00
2023-02-22T10:05:05.922Z,443.00
2023-02-22T10:06:05.953Z,440.00
2023-02-22T10:07:06.219Z,445.00
2023-02-22T10:08:06.169Z,438.00
2023-02-22T10:09:06.165Z,442.00
2023-02-22T10:10:06.357Z,436.00
2023-02-22T10:11:06.362Z,439.00
2023-02-22T10:12:06.442Z,440.00
2023-02-22T10:13:06.601Z,438.00
2023-02-22T10:14:06.594Z,437.00
2023-02-22T10:15:06.694Z,433.00
2023-02-22T10:16:06.830Z,438.00
2023-02-22T10:17:06.912Z,439.00
2023-02-22T10:18:07.141Z,439.00
2023-02-22T10:19:07.083Z,436.00
2023-02-22T10:20:07.201Z,437.00
2023-02-22T10:21:07.313Z,435.00
2023-02-22T10:22:07.364Z,435.00
2023-02-22T10:23:07.462Z,438.00
2023-02-22T10:24:08.252Z,437.00
2023-02-22T10:25:09.670Z,438.00
2023-02-22T10:26:07.869Z,443.00
2023-02-22T10:27:07.781Z,440.00
2023-02-22T10:28:07.923Z,445.00
2023-02-22T10:29:08.056Z,442.00
2023-02-22T10:30:22.330Z,440.00
2023-02-22T10:31:09.285Z,445.00
2023-02-22T10:32:08.241Z,438.00
2023-02-22T10:33:08.180Z,435.00
2023-02-22T10:34:08.190Z,454.00
2023-02-22T10:35:08.200Z,470.00
2023-02-22T10:36:08.216Z,443.00
2023-02-22T10:37:08.229Z,439.00
2023-02-22T10:38:08.236Z,440.00
2023-02-22T10:39:08.242Z,440.00
2023-02-22T10:40:08.245Z,439.00
2023-02-22T10:41:08.257Z,438.00
2023-02-22T10:42:08.265Z,435.00
2023-02-22T10:43:08.248Z,433.00
2023-02-22T10:44:08.233Z,440.00
2023-02-22T10:45:08.216Z,437.00
2023-02-22T10:46:08.256Z,441.00
2023-02-22T10:47:08.273Z,438.00
2023-02-22T10:48:08.238Z,436.00
2023-02-22T10:49:08.283Z,437.00
2023-02-22T10:50:08.336Z,435.00
2023-02-22T10:51:08.377Z,438.00
2023-02-22T10:52:08.396Z,435.00
2023-02-22T10:53:08.436Z,452.00
2023-02-22T10:54:08.479Z,444.00
2023-02-22T10:55:15.320Z,426.00
2023-02-22T10:56:11.439Z,439.00
2023-02-22T10:57:08.487Z,440.00
2023-02-22T10:58:08.480Z,435.00
2023-02-22T10:59:09.437Z,437.00
2023-02-22T11:00:08.424Z,438.00
2023-02-22T11:01:09.279Z,438.00
2023-02-22T11:02:08.367Z,444.00
2023-02-22T11:03:08.361Z,434.00
2023-02-22T11:04:08.319Z,440.00
2023-02-22T11:05:08.400Z,442.00
2023-02-22T11:06:08.270Z,445.00
2023-02-22T11:07:08.242Z,440.00
2023-02-22T11:08:08.224Z,450.00
2023-02-22T11:09:08.243Z,415.00
2023-02-22T11:10:08.293Z,441.00
2023-02-22T11:11:08.353Z,426.00
2023-02-22T11:12:08.415Z,436.00
2023-02-22T11:13:08.489Z,440.00
2023-02-22T11:14:08.511Z,433.00
2023-02-22T11:15:08.508Z,433.00
2023-02-22T11:16:08.574Z,450.00
2023-02-22T11:17:08.597Z,436.00
2023-02-22T11:18:08.959Z,439.00
2023-02-22T11:19:08.572Z,436.00
2023-02-22T11:20:08.561Z,435.00
2023-02-22T11:21:08.525Z,441.00
2023-02-22T11:22:08.501Z,437.00
2023-02-22T11:23:08.471Z,437.00
2023-02-22T11:24:08.495Z,438.00
2023-02-22T11:25:08.427Z,443.00
2023-02-22T11:26:08.438Z,443.00
2023-02-22T11:27:08.454Z,438.00
2023-02-22T11:28:08.467Z,436.00
2023-02-22T11:29:08.486Z,436.00
2023-02-22T11:30:08.554Z,441.00
2023-02-22T11:31:08.642Z,452.00
2023-02-22T11:32:08.612Z,440.00
2023-02-22T11:33:08.711Z,439.00
2023-02-22T11:34:08.870Z,437.00
2023-02-22T11:35:09.594Z,434.00
2023-02-22T11:36:09.027Z,441.00
2023-02-22T11:37:09.052Z,441.00
2023-02-22T11:38:09.061Z,439.00
2023-02-22T11:39:09.179Z,438.00
2023-02-22T11:40:09.119Z,446.00
2023-02-22T11:41:09.184Z,444.00
2023-02-22T11:42:09.188Z,440.00
2023-02-22T11:43:09.207Z,446.00
2023-02-22T11:44:09.239Z,441.00
2023-02-22T11:45:10.266Z,440.00
2023-02-22T11:46:09.326Z,432.00
2023-02-22T11:47:09.308Z,441.00
2023-02-22T11:48:09.293Z,438.00
2023-02-22T11:49:09.290Z,455.00
2023-02-22T11:50:09.290Z,436.00
2023-02-22T11:51:09.322Z,432.00
2023-02-22T11:52:09.339Z,427.00
2023-02-22T11:53:09.373Z,434.00
2023-02-22T11:54:09.353Z,443.00
2023-02-22T11:55:09.346Z,440.00
2023-02-22T11:56:09.368Z,434.00
2023-02-22T11:57:09.350Z,435.00
2023-02-22T11:58:09.318Z,436.00
2023-02-22T11:59:09.299Z,432.00
2023-02-22T12:00:09.314Z,433.00
2023-02-22T12:01:09.360Z,430.00
2023-02-22T12:02:09.345Z,438.00
2023-02-22T12:03:09.361Z,438.00
2023-02-22T12:04:09.489Z,435.00
2023-02-22T12:05:09.418Z,433.00
2023-02-22T12:06:09.385Z,433.00
2023-02-22T12:07:09.412Z,433.00
2023-02-22T12:08:19.310Z,432.00
2023-02-22T12:09:10.371Z,433.00
2023-02-22T12:10:09.287Z,433.00
2023-02-22T12:11:09.217Z,434.00
2023-02-22T12:12:09.167Z,434.00
2023-02-22T12:13:09.099Z,431.00
2023-02-22T12:14:09.170Z,433.00
2023-02-22T12:15:09.002Z,433.00
2023-02-22T12:16:08.961Z,438.00
2023-02-22T12:17:08.881Z,438.00
2023-02-22T12:18:08.837Z,436.00
2023-02-22T12:19:08.769Z,438.00
2023-02-22T12:20:08.716Z,439.00
2023-02-22T12:21:08.642Z,439.00
2023-02-22T12:22:08.604Z,438.00
2023-02-22T12:23:08.585Z,441.00
2023-02-22T12:24:08.548Z,437.00
2023-02-22T12:25:12.686Z,442.00
2023-02-22T12:26:10.744Z,443.00
2023-02-22T12:27:08.377Z,442.00
2023-02-22T12:28:19.032Z,440.00
2023-02-22T12:29:09.246Z,442.00
2023-02-22T12:30:08.201Z,443.00
2023-02-22T12:31:08.181Z,441.00
2023-02-22T12:32:08.157Z,438.00
2023-02-22T12:33:08.076Z,439.00
2023-02-22T12:34:08.157Z,436.00
2023-02-22T12:35:07.933Z,437.00
2023-02-22T12:36:07.857Z,438.00
2023-02-22T12:37:07.793Z,437.00
2023-02-22T12:38:07.730Z,437.00
2023-02-22T12:39:07.880Z,436.00
2023-02-22T12:40:07.607Z,437.00
2023-02-22T12:41:07.553Z,438.00
2023-02-22T12:42:07.481Z,439.00
2023-02-22T12:43:07.422Z,438.00
2023-02-22T12:44:07.356Z,437.00
2023-02-22T12:45:09.266Z,438.00
2023-02-22T12:46:07.325Z,437.00
2023-02-22T12:47:07.163Z,434.00
2023-02-22T12:48:07.114Z,437.00
2023-02-22T12:49:07.030Z,436.00
2023-02-22T12:50:06.975Z,437.00
2023-02-22T12:51:06.898Z,436.00
2023-02-22T12:52:20.575Z,436.00
2023-02-22T12:53:07.759Z,442.00
2023-02-22T12:54:06.675Z,441.00
2023-02-22T12:55:06.602Z,441.00
2023-02-22T12:56:06.520Z,441.00
2023-02-22T12:57:06.452Z,442.00
2023-02-22T12:58:06.374Z,440.00
2023-02-22T12:59:06.301Z,442.00
2023-02-22T13:00:06.229Z,441.00
2023-02-22T13:01:07.271Z,442.00
2023-02-22T13:02:06.076Z,441.00
2023-02-22T13:03:05.984Z,443.00
2023-02-22T13:04:19.690Z,444.00
2023-02-22T13:05:06.845Z,444.00
2023-02-22T13:06:05.747Z,447.00
2023-02-22T13:07:05.660Z,446.00
2023-02-22T13:08:05.610Z,445.00
2023-02-22T13:09:05.526Z,445.00
2023-02-22T13:10:05.444Z,446.00
2023-02-22T13:11:05.374Z,447.00
2023-02-22T13:12:05.292Z,447.00
2023-02-22T13:13:05.230Z,446.00
2023-02-22T13:14:05.144Z,446.00
2023-02-22T13:15:05.075Z,446.00
2023-02-22T13:16:05.071Z,446.00
2023-02-22T13:17:04.942Z,445.00
2023-02-22T13:18:04.870Z,447.00
2023-02-22T13:19:04.792Z,446.00
2023-02-22T13:20:04.742Z,445.00
2023-02-22T13:21:04.723Z,448.00
2023-02-22T13:22:04.707Z,444.00
2023-02-22T13:23:04.682Z,443.00
2023-02-22T13:24:04.667Z,443.00
2023-02-22T13:25:04.634Z,444.00
2023-02-22T13:26:04.613Z,442.00
2023-02-22T13:27:04.822Z,440.00
2023-02-22T13:28:04.943Z,441.00
2023-02-22T13:29:05.151Z,444.00
2023-02-22T13:30:05.329Z,446.00
2023-02-22T13:31:05.539Z,447.00
2023-02-22T13:32:05.715Z,445.00
2023-02-22T13:33:05.872Z,446.00
2023-02-22T13:34:06.064Z,447.00
2023-02-22T13:35:06.214Z,451.00
2023-02-22T13:36:06.370Z,449.00
2023-02-22T13:37:06.521Z,450.00
2023-02-22T13:38:06.699Z,447.00
2023-02-22T13:39:06.849Z,446.00
2023-02-22T13:40:07.005Z,442.00
2023-02-22T13:41:07.186Z,440.00
2023-02-22T13:42:07.274Z,442.00
2023-02-22T13:43:07.498Z,440.00
2023-02-22T13:44:07.649Z,442.00
2023-02-22T13:45:07.738Z,442.00
2023-02-22T13:46:08.007Z,442.00
2023-02-22T13:47:08.054Z,441.00
2023-02-22T13:48:08.254Z,441.00
2023-02-22T13:49:08.343Z,442.00
2023-02-22T13:50:08.546Z,442.00
2023-02-22T13:51:08.673Z,442.00
2023-02-22T13:52:08.805Z,442.00
2023-02-22T13:53:08.949Z,445.00
2023-02-22T13:54:09.048Z,444.00
2023-02-22T13:55:09.159Z,444.00
2023-02-22T13:56:09.294Z,443.00
2023-02-22T13:57:09.422Z,444.00
2023-02-22T13:58:09.623Z,444.00
2023-02-22T13:59:09.723Z,445.00
2023-02-22T14:00:09.956Z,445.00
2023-02-22T14:01:10.024Z,444.00
2023-02-22T14:02:10.126Z,439.00
2023-02-22T14:03:10.306Z,440.00
2023-02-22T14:22:13.169Z,439.00
2023-02-22T14:23:13.390Z,441.00
2023-02-22T14:24:13.541Z,443.00
2023-02-22T14:25:20.364Z,441.00
2023-02-22T14:27:13.546Z,440.00
2023-02-22T14:28:13.455Z,441.00
2023-02-22T14:29:13.360Z,442.00
2023-02-22T14:30:13.279Z,442.00
2023-02-22T14:31:25.767Z,441.00
2023-02-22T14:32:14.141Z,440.00
2023-02-22T14:35:25.566Z,447.00
2023-02-22T14:36:13.795Z,450.00
2023-02-22T14:46:13.661Z,442.00
2023-02-22T14:47:13.128Z,443.00
2023-02-22T14:48:13.118Z,445.00
2023-02-22T14:52:12.958Z,454.00
2023-02-22T15:08:12.382Z,446.00
2023-02-22T15:09:12.323Z,448.00
2023-02-22T15:10:12.260Z,447.00
2023-02-22T15:11:12.190Z,448.00
2023-02-22T15:12:12.140Z,447.00
2023-02-22T15:13:12.072Z,447.00
2023-02-22T15:14:24.094Z,445.00
2023-02-22T15:16:11.879Z,441.00
2023-02-22T15:17:11.799Z,443.00
2023-02-22T15:18:11.735Z,444.00
2023-02-22T15:19:11.677Z,442.00
2023-02-22T15:20:11.621Z,444.00
2023-02-22T15:21:13.186Z,444.00
2023-02-22T15:22:11.491Z,446.00
2023-02-22T15:23:11.423Z,444.00
2023-02-22T15:24:11.354Z,445.00
2023-02-22T15:25:11.296Z,448.00
2023-02-22T15:26:11.253Z,450.00
2023-02-22T15:27:11.191Z,455.00
2023-02-22T15:28:11.151Z,454.00
2023-02-22T15:29:11.110Z,452.00
2023-02-22T15:30:11.096Z,451.00
2023-02-22T15:31:11.085Z,451.00
2023-02-22T15:32:11.139Z,450.00
2023-02-22T15:33:11.110Z,449.00
2023-02-22T15:34:11.195Z,446.00
2023-02-22T15:35:11.400Z,447.00
2023-02-22T15:36:11.536Z,448.00
2023-02-22T15:37:11.670Z,447.00
2023-02-22T15:38:11.932Z,447.00
2023-02-22T15:39:12.107Z,448.00
2023-02-22T15:40:12.261Z,446.00
2023-02-22T15:41:12.422Z,446.00
2023-02-22T15:42:12.576Z,448.00
2023-02-22T15:43:12.741Z,446.00
2023-02-22T15:44:24.263Z,446.00
2023-02-22T15:45:13.846Z,445.00
2023-02-22T15:46:12.873Z,444.00
2023-02-22T15:47:12.740Z,443.00
2023-02-22T15:48:12.698Z,442.00
2023-02-22T15:49:12.648Z,443.00
2023-02-22T15:50:12.595Z,444.00
2023-02-22T15:51:12.561Z,446.00
2023-02-22T15:52:12.505Z,444.00
2023-02-22T15:53:12.464Z,449.00
2023-02-22T15:54:21.573Z,460.00
2023-02-22T15:55:13.370Z,463.00
2023-02-22T15:56:12.343Z,464.00
2023-02-22T15:57:12.289Z,463.00
2023-02-22T15:58:12.249Z,463.00
2023-02-22T15:59:12.220Z,464.00
2023-02-22T16:00:12.160Z,461.00
2023-02-22T16:01:12.146Z,459.00
2023-02-22T16:02:12.112Z,458.00
2023-02-22T16:03:12.051Z,459.00
2023-02-22T16:04:12.073Z,459.00
2023-02-22T16:05:12.099Z,455.00
2023-02-22T16:06:12.119Z,453.00
2023-02-22T16:07:12.141Z,452.00
2023-02-22T16:08:12.258Z,455.00
2023-02-22T16:09:12.205Z,455.00
2023-02-22T16:10:12.211Z,454.00
2023-02-22T16:11:12.251Z,454.00
2023-02-22T16:12:12.267Z,457.00
2023-02-22T16:13:22.194Z,455.00
2023-02-22T16:14:13.247Z,458.00
2023-02-22T16:43:13.130Z,454.00
2023-02-22T16:44:13.415Z,454.00
2023-02-22T16:45:13.572Z,456.00
2023-02-22T16:46:13.884Z,455.00
2023-02-22T16:47:13.996Z,456.00
2023-02-22T16:48:14.201Z,456.00
2023-02-22T16:49:14.416Z,458.00
2023-02-22T16:50:14.626Z,456.00
2023-02-22T16:51:14.844Z,452.00
2023-02-22T16:53:15.241Z,453.00
2023-02-22T18:36:20.024Z,452.00
2023-02-22T18:37:19.762Z,453.00
2023-02-22T18:38:19.803Z,455.00
2023-02-22T18:39:19.840Z,456.00
2023-02-22T18:40:19.872Z,454.00
2023-02-22T18:41:19.921Z,454.00
2023-02-22T18:42:19.948Z,458.00
2023-02-22T18:43:19.970Z,457.00
2023-02-22T18:44:20.026Z,457.00
2023-02-22T18:45:20.033Z,460.00
2023-02-22T19:06:23.316Z,450.00
2023-02-22T19:07:23.494Z,450.00
2023-02-22T19:08:23.700Z,453.00
2023-02-22T19:10:24.089Z,454.00
2023-02-22T19:12:24.545Z,455.00
2023-02-22T19:13:24.749Z,453.00
2023-02-22T19:14:24.933Z,453.00
2023-02-22T19:15:25.110Z,453.00
2023-02-22T19:16:25.329Z,453.00
2023-02-22T19:54:33.132Z,452.00
2023-02-22T19:55:33.454Z,453.00
2023-02-22T19:56:33.679Z,451.00
2023-02-22T19:57:33.912Z,452.00
2023-02-22T19:58:34.101Z,450.00
2023-02-22T20:46:43.349Z,441.00
2023-02-22T20:47:43.413Z,451.00
2023-02-22T20:48:43.593Z,440.00
2023-02-22T20:49:44.497Z,443.00
2023-02-22T20:50:44.488Z,435.00
2023-02-22T20:51:44.059Z,432.00
2023-02-22T20:52:44.160Z,433.00
2023-02-22T20:53:44.223Z,433.00
2023-02-22T20:54:44.312Z,428.00
2023-02-22T20:55:44.376Z,428.00
2023-02-22T20:56:44.452Z,430.00
2023-02-22T20:57:44.527Z,434.00
2023-02-22T20:58:44.618Z,434.00
2023-02-22T20:59:44.704Z,432.00
2023-02-22T21:00:44.777Z,432.00
2023-02-22T21:01:44.858Z,432.00
2023-02-22T21:02:44.988Z,437.00
2023-02-22T21:03:45.024Z,441.00
2023-02-22T21:04:45.170Z,437.00
2023-02-22T21:05:45.172Z,436.00
2023-02-22T21:06:45.223Z,439.00
2023-02-22T21:07:45.347Z,440.00
2023-02-22T21:08:45.496Z,437.00
2023-02-22T21:09:45.657Z,437.00
2023-02-22T21:10:45.808Z,436.00
2023-02-22T21:11:45.905Z,436.00
2023-02-22T21:12:46.725Z,432.00
2023-02-22T21:13:46.069Z,432.00
2023-02-22T21:14:46.181Z,432.00
2023-02-22T21:15:46.246Z,431.00
2023-02-22T21:16:46.365Z,424.00
2023-02-22T21:17:46.402Z,434.00
2023-02-22T21:18:46.490Z,438.00
2023-02-22T21:19:46.564Z,433.00
2023-02-22T21:20:46.654Z,431.00
2023-02-22T21:21:46.731Z,432.00
2023-02-22T21:22:46.800Z,435.00
2023-02-22T21:23:46.895Z,432.00
2023-02-22T21:24:46.980Z,428.00
2023-02-22T21:25:47.068Z,432.00
2023-02-22T21:26:47.163Z,433.00
2023-02-22T21:27:47.921Z,431.00
2023-02-22T21:28:51.164Z,430.00
2023-02-22T21:29:47.336Z,430.00
2023-02-22T21:30:47.490Z,428.00
2023-02-22T21:31:47.661Z,441.00
2023-02-22T21:32:47.441Z,438.00
2023-02-22T21:33:47.489Z,439.00
2023-02-22T21:34:47.531Z,437.00
2023-02-22T21:35:47.573Z,434.00
2023-02-22T21:36:47.598Z,435.00
2023-02-22T21:37:47.627Z,445.00
2023-02-22T21:38:47.659Z,438.00
2023-02-22T21:39:47.706Z,440.00
2023-02-22T21:40:47.710Z,439.00
2023-02-22T21:41:47.758Z,440.00
2023-02-22T21:42:47.788Z,438.00
2023-02-22T21:43:47.837Z,437.00
2023-02-22T21:44:47.877Z,436.00
2023-02-22T21:45:47.913Z,432.00
2023-02-22T21:46:47.933Z,434.00
2023-02-22T21:47:47.964Z,435.00
2023-02-22T21:48:48.011Z,435.00
2023-02-22T21:49:48.049Z,430.00
2023-02-22T21:50:48.081Z,451.00
2023-02-22T21:51:48.150Z,446.00